メインページ
METAR-TAF:

METAR-TAF

空港 :

成田国際空港

東京 / 成田国際空港, 日本

緯度: 35-46N, 経度: 140-23E, 海抜: 41m

現時点の気象観測

当レポートは36分前の11:30(UTC)に作成
の風 5kt、南/南東から西/北西の間で変化する
気温 13°C
湿度 62%
気圧 1020 hPa
視程10km以上
高度3000ftの雲はほとんどない
千切れ雲あり

METAR: RJAA 201130Z 18005KT 150V290 9999 FEW030 BKN/// 13/06 Q1020 NOSIG

時間: 21:06 (12:06 UTC)

予報

当レポートは1時間1分前の11:05(UTC)に作成
予報は20日の 12時(UTC)から 21日の 18時(UTC)まで有効
南/南西の風 5kt
視程10km以上
高度3000ftの雲はほとんどない
20日の 13時(UTC)から 20日の 15時(UTC)まで徐々に
北/北西の風 4kt
21日の 00時(UTC)から 21日の 03時(UTC)まで徐々に
南東の風 5kt

TAF: RJAA 201105Z 2012/2118 20005KT 9999 FEW030 BECMG 2013/2015 34004KT BECMG 2100/2103 14005KT

4,000以上の空港の気象観測と天気予報(METAR報とTAF報)

利用可能な観測所は地図上に黄色い丸と赤い丸で示す。

丸の上にカーソルを重ねると観測所名を参照できる。

次にクリックすると気象観測と天気予報を参照できる。

マップの切り替え:黒色「×」印の緑ボタンをクリックして拡大、「-」印の緑ボタンをクリックして縮小、緑色の三角印をクリックして隣りの地図に切り替え


METAR-TAF: